Estevan Airport
CYEN : rendu visible

Aérodrome :











RETROUVEZ-NOUS SUR...

 
LOGIN :

S'inscrire | Disclaimer

   EN    FR    IT 

 









Légende :    VFR   VFR Marginal   IFR   IFR Intensif   IFR Très Intensif
Visi : 
Plafond : 
>= 8 km
>= 3000ft
5 à 8 km
1000 à 3000 ft
1500m à 5 km
500 à 1000 ft
800 à 1500m
200 à 500 ft
< 800m
< 200 ft
Symboles :   Orages  Brouillard  Fortes neiges  Fortes précipitations  Vent > 20 kt






- Altitude de l'aérodrome : 1905 ft
- Code IATA : YEN


CYEN - Estevan

DERNIER METAR :
  • 222200Z AUTO 23012KT 9SM CLR M03/M05 A2967 RMK SLP083

METARs EXPIRÉS :
  • 222100Z AUTO 23011G16KT 9SM CLR M02/M05 A2969 RMK SLP091
  • 222000Z AUTO 24012G17KT 9SM CLR M03/M05 A2973 RMK SLP102

TAF TAF CYEN
Valide du 22 à 18h jusqu'au 23 à 00h UTC


221740Z 2218/2224 22012G22KT P6SM SKC RMK FCST BASED ON AUTO OBS. NXT FCST WILL BE ISSUED AT 231145Z



MET'MAP, la Météo Aéronautique d'un coup d'oeil ! - Copyright ORBIFLY Décembre 2007 - Disclaimer

ORBIFLY MET'MAP TEAM :

Programmation & Développement : Alexandra Zaïnal
Conception & Développement : Baudouin d'Aumeries
Co-Programmation & Développement : Marc-Olivier Méhu
Soutien technique & logistique : Manuel Goepfert

Contact : metmap@orbifly.com




SOURCES & CREDITS :

   NOAA       Earth
Advisory